Time;durP1;ratioP1;P1;durP2;ratioP2;P2;SDS_P1;SDS_P2;PMS_P1;PMS_P2;Temp;Humidity;BMP_temperature;BMP_pressure;BME280_temperature;BME280_humidity;BME280_pressure;Samples;Min_cycle;Max_cycle;Signal;HPM_P1;HPM_P2
2021/12/28 00:01:56;;;;;;;;;26.25;24.75;;;;;;;;5080826;28;10368;-75
2021/12/28 00:04:21;;;;;;;;;26.25;24.25;;;;;;;;5081506;28;10583;-75
2021/12/28 00:06:46;;;;;;;;;30.25;29.50;;;;;;;;5080857;28;8874;-74
2021/12/28 00:09:12;;;;;;;;;26.25;25.00;;;;;;;;5080504;28;13233;-74
2021/12/28 00:11:37;;;;;;;;;28.25;26.00;;;;;;;;5079111;28;13230;-74
2021/12/28 00:14:04;;;;;;;;;30.00;30.00;;;;;;;;5080707;28;8950;-73
2021/12/28 00:17:58;;;;;;;;;31.50;30.25;;;;;;;;5078585;28;14473;-73
2021/12/28 00:19:17;;;;;;;;;30.00;29.00;;;;;;;;5079768;28;11962;-73
2021/12/28 00:21:43;;;;;;;;;31.50;29.50;;;;;;;;5080036;28;12222;-74
2021/12/28 00:24:08;;;;;;;;;38.75;34.25;;;;;;;;5080370;28;11398;-74
2021/12/28 00:26:33;;;;;;;;;40.00;31.00;;;;;;;;5079923;28;12220;-74
2021/12/28 00:28:58;;;;;;;;;37.00;34.00;;;;;;;;5079739;28;13209;-74
2021/12/28 00:31:26;;;;;;;;;39.25;36.25;;;;;;;;5079671;28;10864;-73
2021/12/28 00:33:52;;;;;;;;;36.25;34.25;;;;;;;;5078860;28;15158;-74
2021/12/28 00:36:18;;;;;;;;;32.50;30.25;;;;;;;;5078539;28;11610;-74
2021/12/28 00:38:43;;;;;;;;;36.25;34.00;;;;;;;;5079738;28;11519;-74
2021/12/28 00:41:10;;;;;;;;;37.50;32.75;;;;;;;;5079722;28;11380;-74
2021/12/28 00:43:36;;;;;;;;;34.75;34.00;;;;;;;;5078490;28;13562;-74
2021/12/28 00:46:02;;;;;;;;;30.50;28.00;;;;;;;;5080114;28;11628;-74
2021/12/28 00:48:28;;;;;;;;;38.50;35.00;;;;;;;;5078094;28;11703;-74
2021/12/28 00:50:53;;;;;;;;;35.25;33.75;;;;;;;;5079759;28;12319;-74
2021/12/28 00:53:19;;;;;;;;;38.75;33.25;;;;;;;;5079402;28;11381;-74
2021/12/28 00:55:44;;;;;;;;;27.50;27.00;;;;;;;;5080331;28;10366;-74
2021/12/28 00:58:09;;;;;;;;;31.25;30.25;;;;;;;;5080313;28;13433;-74
2021/12/28 01:00:36;;;;;;;;;25.50;24.00;;;;;;;;5080338;28;13257;-74
2021/12/28 01:03:02;;;;;;;;;29.00;26.50;;;;;;;;5079664;28;14704;-75
2021/12/28 01:05:28;;;;;;;;;29.75;26.50;;;;;;;;5079349;28;11515;-74
2021/12/28 01:07:56;;;;;;;;;29.00;26.75;;;;;;;;5079607;28;8859;-73
2021/12/28 01:10:24;;;;;;;;;31.25;26.50;;;;;;;;5079747;28;8924;-73
2021/12/28 01:12:52;;;;;;;;;19.00;18.00;;;;;;;;5080131;28;13357;-75
2021/12/28 01:15:18;;;;;;;;;26.75;24.75;;;;;;;;5079208;28;14976;-74
2021/12/28 01:17:43;;;;;;;;;23.00;21.75;;;;;;;;5079079;28;13379;-73
2021/12/28 01:20:09;;;;;;;;;19.75;18.00;;;;;;;;5079183;28;10361;-73
2021/12/28 01:22:35;;;;;;;;;19.00;17.75;;;;;;;;5080041;28;13326;-73
2021/12/28 01:25:00;;;;;;;;;21.50;19.00;;;;;;;;5078206;28;11546;-74
2021/12/28 01:27:26;;;;;;;;;24.25;19.75;;;;;;;;5079603;28;13249;-72
2021/12/28 01:29:51;;;;;;;;;18.25;15.25;;;;;;;;5079916;28;11367;-72
2021/12/28 01:32:16;;;;;;;;;17.50;16.25;;;;;;;;5079694;28;12338;-72
2021/12/28 01:34:43;;;;;;;;;20.75;19.00;;;;;;;;5079634;28;10569;-71
2021/12/28 01:37:08;;;;;;;;;20.50;19.00;;;;;;;;5079044;28;13325;-71
2021/12/28 01:41:30;;;;;;;;;18.25;18.25;;;;;;;;5217553;27;77652;-71
2021/12/28 01:43:56;;;;;;;;;23.50;18.25;;;;;;;;5199260;27;23781;-69
2021/12/28 01:46:21;;;;;;;;;23.75;21.75;;;;;;;;5199323;27;11478;-69
2021/12/28 01:48:46;;;;;;;;;26.50;25.00;;;;;;;;5200050;27;11414;-70
2021/12/28 01:51:13;;;;;;;;;35.00;32.25;;;;;;;;5199041;27;11537;-72
2021/12/28 01:53:39;;;;;;;;;31.75;31.00;;;;;;;;5200198;27;13318;-71
2021/12/28 01:56:07;;;;;;;;;30.25;30.00;;;;;;;;5200069;27;11618;-71
2021/12/28 01:58:33;;;;;;;;;25.50;24.50;;;;;;;;5198619;27;11526;-73
2021/12/28 02:00:58;;;;;;;;;27.75;26.50;;;;;;;;5199745;27;13384;-73
2021/12/28 02:03:25;;;;;;;;;32.00;28.00;;;;;;;;5199955;27;11507;-73
2021/12/28 02:05:50;;;;;;;;;24.75;24.00;;;;;;;;5199283;27;13293;-73
2021/12/28 02:08:16;;;;;;;;;29.00;28.50;;;;;;;;5199473;27;12337;-72
2021/12/28 02:10:42;;;;;;;;;30.50;26.75;;;;;;;;5199824;27;11612;-73
2021/12/28 02:13:08;;;;;;;;;29.00;28.75;;;;;;;;5200147;27;13639;-73
2021/12/28 02:15:34;;;;;;;;;34.25;31.25;;;;;;;;5199594;27;13414;-73
2021/12/28 02:18:00;;;;;;;;;28.25;28.00;;;;;;;;5199937;27;12966;-73
2021/12/28 02:20:25;;;;;;;;;31.75;29.25;;;;;;;;5199235;27;13525;-73
2021/12/28 02:22:50;;;;;;;;;33.25;32.50;;;;;;;;5199105;27;14465;-73
2021/12/28 02:25:17;;;;;;;;;34.50;31.75;;;;;;;;5199643;27;13331;-73
2021/12/28 02:27:42;;;;;;;;;32.50;29.00;;;;;;;;5199520;27;11450;-73
2021/12/28 02:30:11;;;;;;;;;11.50;11.25;;;;;;;;5199649;27;12191;-72
2021/12/28 02:32:37;;;;;;;;;28.00;24.25;;;;;;;;5200002;27;13262;-72
2021/12/28 02:35:02;;;;;;;;;23.50;21.25;;;;;;;;5199859;27;12268;-72
2021/12/28 02:37:27;;;;;;;;;15.50;15.25;;;;;;;;5199884;27;10401;-72
2021/12/28 02:39:53;;;;;;;;;23.75;20.50;;;;;;;;5198910;27;10490;-72
2021/12/28 02:42:19;;;;;;;;;18.50;16.25;;;;;;;;5199031;27;13949;-72
2021/12/28 02:44:45;;;;;;;;;18.00;17.25;;;;;;;;5179766;27;13786;-72
2021/12/28 02:47:15;;;;;;;;;15.00;13.25;;;;;;;;5198792;27;12161;-72
2021/12/28 02:49:40;;;;;;;;;18.50;15.75;;;;;;;;5199052;27;9259;-72
2021/12/28 02:52:09;;;;;;;;;15.50;13.50;;;;;;;;5189669;27;11580;-73
2021/12/28 02:54:36;;;;;;;;;11.00;10.00;;;;;;;;5184853;27;11693;-73
2021/12/28 02:57:01;;;;;;;;;10.75;9.00;;;;;;;;5185086;27;11985;-73
2021/12/28 02:59:26;;;;;;;;;13.50;13.50;;;;;;;;5185035;27;22572;-73
2021/12/28 03:01:51;;;;;;;;;11.00;10.00;;;;;;;;5185083;27;21408;-73
2021/12/28 03:04:17;;;;;;;;;9.75;9.75;;;;;;;;5185092;27;11354;-73
2021/12/28 03:06:42;;;;;;;;;11.25;11.00;;;;;;;;5184850;27;22374;-73
2021/12/28 03:09:07;;;;;;;;;11.25;10.75;;;;;;;;5184708;27;23404;-73
2021/12/28 03:11:32;;;;;;;;;11.25;8.25;;;;;;;;5185023;27;10297;-73
2021/12/28 03:13:59;;;;;;;;;9.75;9.75;;;;;;;;5184816;27;16303;-73
2021/12/28 03:16:26;;;;;;;;;9.25;8.75;;;;;;;;5184559;27;21349;-73
2021/12/28 03:18:51;;;;;;;;;9.00;7.50;;;;;;;;5185261;27;11443;-73
2021/12/28 03:21:17;;;;;;;;;10.25;9.00;;;;;;;;5184989;27;11557;-73
2021/12/28 03:23:43;;;;;;;;;8.00;8.00;;;;;;;;5184529;27;22816;-73
2021/12/28 03:26:09;;;;;;;;;8.50;4.25;;;;;;;;5183989;27;21332;-73
2021/12/28 03:28:36;;;;;;;;;7.75;7.25;;;;;;;;5184775;27;10356;-73
2021/12/28 03:31:02;;;;;;;;;7.00;7.00;;;;;;;;5185086;27;11451;-73
2021/12/28 03:33:31;;;;;;;;;11.00;5.50;;;;;;;;5185041;27;11456;-73
2021/12/28 03:35:56;;;;;;;;;10.50;9.00;;;;;;;;5184243;27;21444;-73
2021/12/28 03:38:22;;;;;;;;;9.00;7.75;;;;;;;;5184799;27;11441;-73
2021/12/28 03:40:48;;;;;;;;;6.50;6.50;;;;;;;;5183765;27;21356;-73
2021/12/28 03:43:13;;;;;;;;;10.00;7.75;;;;;;;;5184164;27;12475;-73
2021/12/28 03:45:39;;;;;;;;;8.25;5.75;;;;;;;;5183796;27;22133;-73
2021/12/28 03:48:04;;;;;;;;;9.50;7.75;;;;;;;;5183786;27;21658;-73
2021/12/28 03:50:30;;;;;;;;;10.00;9.00;;;;;;;;5184517;27;11633;-72
2021/12/28 03:52:56;;;;;;;;;9.50;9.50;;;;;;;;5184296;27;21531;-72
2021/12/28 03:55:22;;;;;;;;;10.25;9.50;;;;;;;;5184101;27;21402;-72
2021/12/28 03:57:48;;;;;;;;;9.50;9.50;;;;;;;;5183588;27;16686;-71
2021/12/28 04:00:14;;;;;;;;;11.50;11.25;;;;;;;;5183625;27;16383;-72
2021/12/28 04:02:40;;;;;;;;;10.50;9.25;;;;;;;;5182429;27;22326;-72
2021/12/28 04:05:06;;;;;;;;;11.25;10.00;;;;;;;;5183978;27;21522;-72
2021/12/28 04:07:31;;;;;;;;;8.50;8.50;;;;;;;;5183901;27;21844;-72
2021/12/28 04:10:00;;;;;;;;;15.50;11.50;;;;;;;;5183966;27;23726;-72
2021/12/28 04:12:26;;;;;;;;;14.25;12.75;;;;;;;;5183540;27;22639;-72
2021/12/28 04:14:51;;;;;;;;;15.00;14.50;;;;;;;;5184032;27;11484;-72
2021/12/28 04:17:16;;;;;;;;;17.25;14.00;;;;;;;;5184038;27;11382;-72
2021/12/28 04:19:42;;;;;;;;;17.00;15.50;;;;;;;;5183630;27;11409;-72
2021/12/28 04:22:07;;;;;;;;;15.75;14.00;;;;;;;;5183801;27;10344;-73
2021/12/28 04:24:33;;;;;;;;;15.50;14.50;;;;;;;;5183515;27;11350;-72
2021/12/28 04:26:58;;;;;;;;;17.25;15.00;;;;;;;;5183724;27;8792;-72
2021/12/28 04:29:23;;;;;;;;;19.50;17.50;;;;;;;;5183576;27;11797;-72
2021/12/28 04:31:49;;;;;;;;;13.75;13.75;;;;;;;;5182981;27;11417;-72
2021/12/28 04:34:14;;;;;;;;;14.50;14.00;;;;;;;;5183037;27;11353;-72
2021/12/28 04:36:40;;;;;;;;;15.75;14.50;;;;;;;;5183927;27;11524;-72
2021/12/28 04:39:05;;;;;;;;;16.00;16.00;;;;;;;;5164162;27;12720;-72
2021/12/28 04:41:31;;;;;;;;;16.00;15.00;;;;;;;;5183320;27;12493;-72
2021/12/28 04:43:59;;;;;;;;;17.25;13.00;;;;;;;;5183985;27;8780;-72
2021/12/28 04:46:25;;;;;;;;;15.75;15.75;;;;;;;;5183748;27;10416;-72
2021/12/28 04:48:50;;;;;;;;;13.25;12.25;;;;;;;;5183570;27;11511;-72
2021/12/28 04:51:15;;;;;;;;;12.75;10.00;;;;;;;;5183574;27;10466;-70
2021/12/28 04:53:41;;;;;;;;;15.00;14.25;;;;;;;;5183370;27;11352;-70
2021/12/28 04:56:06;;;;;;;;;12.50;9.00;;;;;;;;5183255;27;11941;-70
2021/12/28 04:58:32;;;;;;;;;12.50;10.50;;;;;;;;5183152;27;21713;-70
2021/12/28 05:00:57;;;;;;;;;11.00;11.00;;;;;;;;5182725;27;16480;-72
2021/12/28 05:03:22;;;;;;;;;12.00;11.00;;;;;;;;5183184;27;11385;-71
2021/12/28 05:05:50;;;;;;;;;11.50;10.75;;;;;;;;5179610;27;8793;-72
2021/12/28 05:08:16;;;;;;;;;13.75;13.25;;;;;;;;5154393;27;13589;-72
2021/12/28 05:10:42;;;;;;;;;14.75;13.00;;;;;;;;5171591;27;11571;-71
2021/12/28 05:13:07;;;;;;;;;10.50;9.75;;;;;;;;5170759;27;11740;-72
2021/12/28 05:15:33;;;;;;;;;9.75;8.50;;;;;;;;5163013;27;21838;-71
2021/12/28 05:17:58;;;;;;;;;12.25;9.75;;;;;;;;5182345;27;21643;-71
2021/12/28 05:20:23;;;;;;;;;14.75;12.25;;;;;;;;5182774;27;21363;-71
2021/12/28 05:22:49;;;;;;;;;15.50;13.75;;;;;;;;5181874;27;21416;-72
2021/12/28 05:25:14;;;;;;;;;14.00;13.00;;;;;;;;5156954;27;12909;-71
2021/12/28 05:27:39;;;;;;;;;14.00;12.50;;;;;;;;5170421;27;11604;-71
2021/12/28 07:13:51;;;;;;;;;6.00;5.50;;;;;;;;5154640;27;1400785;-73
2021/12/28 07:16:16;;;;;;;;;9.00;5.00;;;;;;;;5185242;27;21064;-73
2021/12/28 07:18:41;;;;;;;;;5.00;4.00;;;;;;;;5190562;27;11428;-72
2021/12/28 07:21:06;;;;;;;;;2.00;2.00;;;;;;;;5187710;27;9601;-74
2021/12/28 07:23:32;;;;;;;;;3.00;2.00;;;;;;;;5187502;27;8803;-70
2021/12/28 07:25:57;;;;;;;;;6.50;4.25;;;;;;;;5179313;27;8756;-71
2021/12/28 07:28:23;;;;;;;;;4.75;1.50;;;;;;;;5178976;27;11336;-71
2021/12/28 07:30:49;;;;;;;;;5.00;4.00;;;;;;;;5178525;27;11522;-73
2021/12/28 07:33:14;;;;;;;;;4.00;2.00;;;;;;;;5179028;27;11482;-71
2021/12/28 07:35:40;;;;;;;;;4.00;4.00;;;;;;;;5178423;27;8871;-72
2021/12/28 07:38:05;;;;;;;;;6.00;4.00;;;;;;;;5160018;27;8799;-71
2021/12/28 07:40:30;;;;;;;;;3.00;3.00;;;;;;;;5179001;27;9554;-70
2021/12/28 07:42:56;;;;;;;;;4.00;3.00;;;;;;;;5178638;27;9133;-70
2021/12/28 07:45:22;;;;;;;;;5.75;4.00;;;;;;;;5160581;27;9289;-69
2021/12/28 07:47:48;;;;;;;;;5.00;4.75;;;;;;;;5179058;27;10368;-67
2021/12/28 07:50:14;;;;;;;;;6.00;5.00;;;;;;;;5178976;27;8886;-68
2021/12/28 07:52:40;;;;;;;;;6.25;5.00;;;;;;;;5178482;27;11443;-69
2021/12/28 07:55:06;;;;;;;;;4.75;4.50;;;;;;;;5178468;27;11454;-69
2021/12/28 07:57:32;;;;;;;;;11.00;10.00;;;;;;;;5178922;27;11678;-68
2021/12/28 07:59:57;;;;;;;;;5.00;5.00;;;;;;;;5178149;27;22430;-69
2021/12/28 08:02:23;;;;;;;;;2.25;2.25;;;;;;;;5159153;27;24333;-69
2021/12/28 08:04:48;;;;;;;;;5.50;5.00;;;;;;;;5159550;27;14528;-68
2021/12/28 08:07:13;;;;;;;;;5.50;5.00;;;;;;;;5178618;27;11295;-68
2021/12/28 08:09:39;;;;;;;;;3.00;3.00;;;;;;;;5178406;27;8780;-68
2021/12/28 08:12:04;;;;;;;;;5.25;3.50;;;;;;;;5177673;27;10314;-68
2021/12/28 08:14:29;;;;;;;;;9.00;6.00;;;;;;;;5177833;27;11323;-71
2021/12/28 08:16:55;;;;;;;;;5.00;5.00;;;;;;;;5177904;27;11274;-72
2021/12/28 08:19:20;;;;;;;;;6.00;6.00;;;;;;;;5158832;27;8854;-71
2021/12/28 08:21:45;;;;;;;;;5.75;4.00;;;;;;;;5178097;27;8931;-69
2021/12/28 08:24:11;;;;;;;;;3.00;3.00;;;;;;;;5134046;27;10691;-69
2021/12/28 08:26:36;;;;;;;;;5.00;5.00;;;;;;;;5164444;27;10606;-70
2021/12/28 08:29:02;;;;;;;;;5.25;5.25;;;;;;;;5164717;27;8784;-70
2021/12/28 08:31:28;;;;;;;;;8.00;6.25;;;;;;;;5144896;27;8798;-70
2021/12/28 08:33:54;;;;;;;;;11.00;6.00;;;;;;;;5143017;27;10571;-70
2021/12/28 08:36:19;;;;;;;;;7.00;6.25;;;;;;;;5142198;27;21329;-71
2021/12/28 08:38:44;;;;;;;;;6.25;6.25;;;;;;;;5142770;27;21993;-74
2021/12/28 08:41:10;;;;;;;;;7.25;6.50;;;;;;;;5142923;27;8788;-70
2021/12/28 08:43:36;;;;;;;;;6.00;6.00;;;;;;;;5142445;27;12090;-70
2021/12/28 08:46:01;;;;;;;;;11.25;9.00;;;;;;;;5142299;27;12440;-71
2021/12/28 08:48:26;;;;;;;;;6.00;6.00;;;;;;;;5142091;27;21348;-70
2021/12/28 08:50:52;;;;;;;;;6.25;6.00;;;;;;;;5142106;27;21467;-70
2021/12/28 08:53:17;;;;;;;;;8.00;7.00;;;;;;;;5143070;27;8843;-70
2021/12/28 08:55:42;;;;;;;;;7.00;6.00;;;;;;;;5143454;27;10279;-71
2021/12/28 08:58:08;;;;;;;;;7.00;5.00;;;;;;;;5143079;27;8766;-71
2021/12/28 09:00:34;;;;;;;;;9.00;6.50;;;;;;;;5142241;27;8805;-71
2021/12/28 09:03:00;;;;;;;;;7.00;7.00;;;;;;;;5142569;27;11553;-71
2021/12/28 09:05:26;;;;;;;;;8.50;6.00;;;;;;;;5142283;27;11464;-71
2021/12/28 09:07:52;;;;;;;;;10.00;9.25;;;;;;;;5123334;27;10768;-71
2021/12/28 09:10:17;;;;;;;;;9.50;7.00;;;;;;;;5142360;27;22744;-72
2021/12/28 09:12:42;;;;;;;;;7.00;7.00;;;;;;;;5141314;27;21631;-72
2021/12/28 09:15:08;;;;;;;;;5.25;5.00;;;;;;;;5142515;27;8774;-72
2021/12/28 09:17:34;;;;;;;;;11.00;8.50;;;;;;;;5142673;27;10348;-71
2021/12/28 09:20:00;;;;;;;;;9.00;8.50;;;;;;;;5142344;27;21367;-72
2021/12/28 09:22:25;;;;;;;;;7.00;6.00;;;;;;;;5142185;27;16452;-71
2021/12/28 09:24:50;;;;;;;;;10.50;9.75;;;;;;;;5142108;27;11469;-72
2021/12/28 09:27:19;;;;;;;;;10.25;6.50;;;;;;;;5139335;27;22171;-72
2021/12/28 09:29:44;;;;;;;;;6.75;5.50;;;;;;;;5173920;27;10385;-72
2021/12/28 09:32:10;;;;;;;;;7.00;7.00;;;;;;;;5171655;27;22791;-72
2021/12/28 09:34:35;;;;;;;;;8.75;7.50;;;;;;;;5174532;27;13003;-71
2021/12/28 09:37:00;;;;;;;;;9.00;7.25;;;;;;;;5171157;27;11310;-72
2021/12/28 09:39:28;;;;;;;;;11.50;10.25;;;;;;;;5174026;27;11298;-72
2021/12/28 09:41:55;;;;;;;;;10.00;8.00;;;;;;;;5172468;27;22444;-71
2021/12/28 09:44:21;;;;;;;;;11.25;7.00;;;;;;;;5152593;27;23557;-72
2021/12/28 09:46:46;;;;;;;;;7.00;6.50;;;;;;;;5173408;27;12125;-72
2021/12/28 09:49:11;;;;;;;;;11.50;9.00;;;;;;;;5171718;27;21313;-73
2021/12/28 09:51:37;;;;;;;;;18.50;16.75;;;;;;;;5163775;27;21573;-71
2021/12/28 09:54:02;;;;;;;;;22.00;19.50;;;;;;;;5162384;27;21629;-76
2021/12/28 09:56:28;;;;;;;;;10.25;10.00;;;;;;;;5161909;27;13277;-74
2021/12/28 09:58:53;;;;;;;;;16.25;13.25;;;;;;;;5161596;27;13556;-74
2021/12/28 10:01:20;;;;;;;;;13.25;12.00;;;;;;;;5161909;27;11468;-72
2021/12/28 10:03:46;;;;;;;;;11.50;10.00;;;;;;;;5162420;27;11790;-74
2021/12/28 10:06:15;;;;;;;;;9.50;8.00;;;;;;;;5162519;27;11471;-72
2021/12/28 10:08:41;;;;;;;;;11.25;9.00;;;;;;;;5162210;27;22242;-73
2021/12/28 10:11:06;;;;;;;;;11.25;10.00;;;;;;;;5162025;27;21463;-73
2021/12/28 10:13:32;;;;;;;;;14.25;10.25;;;;;;;;5161296;27;16446;-72
2021/12/28 10:15:57;;;;;;;;;12.00;12.00;;;;;;;;5162533;27;11344;-76
2021/12/28 10:18:22;;;;;;;;;9.00;6.00;;;;;;;;5162245;27;11475;-72
2021/12/28 10:20:49;;;;;;;;;7.00;6.00;;;;;;;;5169276;27;22204;-71
2021/12/28 10:23:17;;;;;;;;;12.50;8.50;;;;;;;;5169264;27;8808;-71
2021/12/28 10:25:43;;;;;;;;;20.00;12.50;;;;;;;;5181396;27;22716;-71
2021/12/28 10:28:09;;;;;;;;;10.75;10.25;;;;;;;;5182363;27;22817;-72
2021/12/28 10:30:40;;;;;;;;;13.25;11.00;;;;;;;;5182879;27;14377;-73
2021/12/28 10:33:07;;;;;;;;;7.00;7.00;;;;;;;;5183005;27;11689;-73
2021/12/28 10:35:43;;;;;;;;;9.50;8.00;;;;;;;;5183167;27;22327;-73
2021/12/28 10:38:10;;;;;;;;;10.00;7.00;;;;;;;;5182608;27;11460;-77
2021/12/28 10:40:37;;;;;;;;;11.00;9.50;;;;;;;;5182507;27;22766;-73
2021/12/28 10:43:03;;;;;;;;;11.25;10.25;;;;;;;;5182506;27;11440;-72
2021/12/28 10:45:47;;;;;;;;;9.50;9.50;;;;;;;;5182205;27;22607;-73
2021/12/28 10:48:23;;;;;;;;;9.50;7.25;;;;;;;;5182192;27;22433;-72
2021/12/28 10:50:49;;;;;;;;;11.00;9.50;;;;;;;;5182937;27;11363;-72
2021/12/28 10:53:18;;;;;;;;;11.00;10.00;;;;;;;;5181953;27;21835;-72
2021/12/28 10:55:45;;;;;;;;;11.00;10.75;;;;;;;;5182745;27;16410;-75
2021/12/28 10:58:19;;;;;;;;;10.50;8.00;;;;;;;;5182182;27;11365;-69
2021/12/28 11:00:44;;;;;;;;;9.50;9.50;;;;;;;;5182326;27;21539;-69
2021/12/28 11:03:14;;;;;;;;;10.50;7.00;;;;;;;;5163564;27;21737;-69
2021/12/28 11:05:39;;;;;;;;;11.25;9.50;;;;;;;;5182397;27;21447;-69
2021/12/28 11:08:08;;;;;;;;;8.00;7.75;;;;;;;;5182953;27;11367;-68
2021/12/28 11:10:34;;;;;;;;;12.25;12.00;;;;;;;;5182796;27;22743;-69
2021/12/28 11:13:00;;;;;;;;;14.75;14.75;;;;;;;;5181655;27;22335;-69
2021/12/28 11:15:25;;;;;;;;;15.75;11.75;;;;;;;;5182783;27;11436;-68
2021/12/28 11:17:51;;;;;;;;;12.00;11.25;;;;;;;;5182797;27;8909;-68
2021/12/28 11:20:16;;;;;;;;;14.00;11.75;;;;;;;;5182865;27;10382;-69
2021/12/28 11:23:01;;;;;;;;;12.00;11.00;;;;;;;;5182678;27;10326;-70
2021/12/28 11:25:27;;;;;;;;;14.50;12.00;;;;;;;;5182214;27;11462;-67
2021/12/28 11:28:10;;;;;;;;;7.50;7.50;;;;;;;;5182560;27;11417;-68
2021/12/28 11:30:36;;;;;;;;;9.00;7.00;;;;;;;;5182803;27;22361;-69
2021/12/28 11:33:05;;;;;;;;;6.50;5.00;;;;;;;;5182485;27;11436;-68
2021/12/28 11:35:30;;;;;;;;;7.75;7.00;;;;;;;;5181878;27;11665;-67
2021/12/28 11:37:56;;;;;;;;;7.00;7.00;;;;;;;;5182666;27;11327;-67
2021/12/28 11:40:21;;;;;;;;;7.25;7.00;;;;;;;;5168452;27;8831;-70
2021/12/28 11:42:47;;;;;;;;;8.00;8.00;;;;;;;;5160169;27;8859;-71
2021/12/28 11:45:12;;;;;;;;;11.00;9.75;;;;;;;;5160612;27;11591;-70
2021/12/28 11:47:37;;;;;;;;;3.00;3.00;;;;;;;;5159685;27;21475;-70
2021/12/28 11:50:04;;;;;;;;;6.00;6.00;;;;;;;;5159443;27;21326;-71
2021/12/28 11:52:29;;;;;;;;;8.25;8.25;;;;;;;;5159402;27;8804;-70
2021/12/28 11:54:56;;;;;;;;;8.00;7.50;;;;;;;;5159366;27;11398;-72
2021/12/28 11:57:25;;;;;;;;;8.00;8.00;;;;;;;;5159253;27;10512;-71
2021/12/28 11:59:52;;;;;;;;;7.25;7.00;;;;;;;;5162040;27;11358;-72
2021/12/28 12:02:17;;;;;;;;;8.50;7.75;;;;;;;;5162730;27;11371;-72
2021/12/28 12:04:45;;;;;;;;;8.25;8.25;;;;;;;;5162857;27;11335;-71
2021/12/28 12:07:13;;;;;;;;;7.00;7.00;;;;;;;;5162996;27;9919;-71
2021/12/28 12:09:51;;;;;;;;;7.00;6.75;;;;;;;;5163301;27;11365;-72
2021/12/28 12:12:40;;;;;;;;;8.25;6.50;;;;;;;;5158073;27;11336;-71
2021/12/28 12:15:09;;;;;;;;;8.00;8.00;;;;;;;;5154019;27;11450;-72
2021/12/28 12:17:38;;;;;;;;;7.00;4.50;;;;;;;;5144256;27;11444;-71
2021/12/28 12:20:23;;;;;;;;;8.75;7.00;;;;;;;;5157842;27;11576;-71
2021/12/28 12:23:15;;;;;;;;;9.00;7.50;;;;;;;;5156813;27;12464;-72
2021/12/28 12:25:50;;;;;;;;;9.50;8.25;;;;;;;;5155055;27;12500;-72
2021/12/28 12:28:20;;;;;;;;;9.00;9.00;;;;;;;;5160873;27;11478;-73
2021/12/28 12:30:48;;;;;;;;;8.00;7.75;;;;;;;;5162684;27;11409;-71
2021/12/28 12:33:14;;;;;;;;;9.25;8.50;;;;;;;;5161945;27;11592;-72
2021/12/28 12:35:42;;;;;;;;;7.75;7.75;;;;;;;;5162840;27;12549;-73
2021/12/28 12:38:14;;;;;;;;;14.25;11.00;;;;;;;;5156650;27;12131;-73
2021/12/28 12:40:59;;;;;;;;;8.75;8.75;;;;;;;;5171129;27;22637;-76
2021/12/28 12:43:40;;;;;;;;;12.00;9.25;;;;;;;;5130498;27;22436;-73
2021/12/28 12:46:19;;;;;;;;;8.50;7.00;;;;;;;;5184385;27;21569;-73
2021/12/28 12:48:44;;;;;;;;;17.00;16.25;;;;;;;;5184709;27;21466;-72
2021/12/28 12:51:21;;;;;;;;;8.50;6.50;;;;;;;;5184244;27;23864;-73
2021/12/28 12:53:47;;;;;;;;;25.50;21.00;;;;;;;;5183881;27;22411;-72
2021/12/28 12:56:12;;;;;;;;;10.00;10.00;;;;;;;;5184462;27;22884;-72
2021/12/28 12:58:39;;;;;;;;;12.25;9.50;;;;;;;;5181665;27;12251;-71
2021/12/28 13:01:04;;;;;;;;;11.50;11.50;;;;;;;;5166044;27;21848;-77
2021/12/28 13:03:36;;;;;;;;;11.00;9.75;;;;;;;;5162128;27;21483;-78
2021/12/28 13:06:01;;;;;;;;;12.00;8.00;;;;;;;;5161726;27;22957;-76
2021/12/28 13:08:27;;;;;;;;;13.00;9.75;;;;;;;;5162153;27;11375;-78
2021/12/28 13:10:52;;;;;;;;;11.00;11.00;;;;;;;;5165007;27;10701;-82
2021/12/28 13:13:17;;;;;;;;;16.75;12.00;;;;;;;;5162594;27;22018;-78
2021/12/28 13:15:42;;;;;;;;;24.75;15.75;;;;;;;;5163458;27;11568;-77
2021/12/28 13:18:08;;;;;;;;;12.50;12.00;;;;;;;;5164655;27;13266;-81
2021/12/28 13:20:34;;;;;;;;;10.75;9.00;;;;;;;;5172113;27;13609;-77
2021/12/28 13:23:07;;;;;;;;;16.00;11.50;;;;;;;;5161630;27;21665;-76
2021/12/28 13:25:44;;;;;;;;;51.25;26.00;;;;;;;;5159850;27;21691;-74
2021/12/28 13:28:11;;;;;;;;;22.25;14.25;;;;;;;;5163415;27;13557;-74
2021/12/28 13:30:38;;;;;;;;;14.50;11.00;;;;;;;;5160117;27;13445;-82
2021/12/28 13:33:05;;;;;;;;;13.75;8.00;;;;;;;;5162612;27;13293;-80
2021/12/28 13:35:32;;;;;;;;;10.50;8.75;;;;;;;;5165497;27;21423;-76
2021/12/28 13:38:06;;;;;;;;;9.00;7.50;;;;;;;;5161373;27;11394;-76
2021/12/28 13:40:31;;;;;;;;;8.00;8.00;;;;;;;;5158857;27;21457;-72
2021/12/28 13:43:00;;;;;;;;;12.00;10.50;;;;;;;;5143627;27;11703;-78
2021/12/28 13:45:31;;;;;;;;;11.50;11.50;;;;;;;;5162769;27;22437;-84
2021/12/28 13:47:56;;;;;;;;;8.50;8.50;;;;;;;;5163348;27;11421;-85
2021/12/28 13:50:22;;;;;;;;;19.25;17.00;;;;;;;;5161404;27;22170;-76
2021/12/28 13:52:52;;;;;;;;;12.75;8.50;;;;;;;;5161057;27;22492;-76
2021/12/28 13:55:23;;;;;;;;;9.00;9.00;;;;;;;;5159055;27;21941;-78
2021/12/28 13:57:48;;;;;;;;;9.00;9.00;;;;;;;;5158918;27;21466;-74
2021/12/28 14:00:14;;;;;;;;;9.00;9.00;;;;;;;;5162521;27;11419;-76
2021/12/28 14:02:40;;;;;;;;;9.00;6.00;;;;;;;;5162544;27;8780;-75
2021/12/28 14:05:07;;;;;;;;;12.50;7.00;;;;;;;;5162505;27;11492;-75
2021/12/28 14:07:33;;;;;;;;;17.75;15.00;;;;;;;;5162481;27;21441;-75
2021/12/28 14:09:58;;;;;;;;;21.00;15.75;;;;;;;;5162134;27;21420;-75
2021/12/28 14:12:23;;;;;;;;;8.00;8.00;;;;;;;;5161907;27;13494;-76
2021/12/28 14:14:49;;;;;;;;;8.25;7.00;;;;;;;;5161822;27;23571;-75
2021/12/28 14:17:15;;;;;;;;;5.00;3.50;;;;;;;;5162146;27;9618;-76
2021/12/28 14:19:45;;;;;;;;;6.25;6.25;;;;;;;;5162001;27;11550;-76
2021/12/28 14:22:15;;;;;;;;;10.25;9.00;;;;;;;;5160985;27;11948;-75
2021/12/28 14:24:45;;;;;;;;;11.00;10.00;;;;;;;;5161287;27;21810;-75
2021/12/28 14:27:14;;;;;;;;;9.00;6.00;;;;;;;;5161173;27;21760;-75
2021/12/28 14:29:39;;;;;;;;;6.00;5.50;;;;;;;;5161582;27;22242;-76
2021/12/28 14:32:12;;;;;;;;;10.00;6.50;;;;;;;;5143399;27;14739;-75
2021/12/28 14:34:38;;;;;;;;;6.75;5.25;;;;;;;;5162152;27;21450;-76
2021/12/28 14:37:06;;;;;;;;;5.75;5.75;;;;;;;;5161461;27;21494;-77
2021/12/28 14:39:35;;;;;;;;;4.00;4.00;;;;;;;;5163180;27;10422;-76
2021/12/28 14:42:17;;;;;;;;;8.25;6.25;;;;;;;;5161477;27;12792;-75
2021/12/28 14:44:44;;;;;;;;;3.75;3.75;;;;;;;;5162591;27;11404;-76
2021/12/28 14:47:14;;;;;;;;;26.00;24.00;;;;;;;;5143090;27;13688;-76
2021/12/28 14:49:40;;;;;;;;;10.00;10.00;;;;;;;;5161183;27;22704;-76
2021/12/28 14:52:13;;;;;;;;;10.25;9.00;;;;;;;;5161454;27;11435;-75
2021/12/28 14:54:57;;;;;;;;;10.00;7.25;;;;;;;;5161864;27;21427;-76
2021/12/28 14:57:23;;;;;;;;;6.00;5.25;;;;;;;;5143342;27;13595;-75
2021/12/28 14:59:49;;;;;;;;;9.25;7.25;;;;;;;;5161410;27;22185;-75
2021/12/28 15:02:16;;;;;;;;;8.25;6.25;;;;;;;;5162186;27;12327;-76
2021/12/28 15:04:48;;;;;;;;;2.50;2.50;;;;;;;;5162222;27;11363;-76
2021/12/28 15:07:14;;;;;;;;;4.00;4.00;;;;;;;;5161991;27;11377;-76
2021/12/28 15:09:39;;;;;;;;;2.00;2.00;;;;;;;;5161392;27;11384;-75
2021/12/28 15:12:06;;;;;;;;;2.00;2.00;;;;;;;;5161105;27;8928;-75
2021/12/28 15:14:35;;;;;;;;;1.50;1.50;;;;;;;;5162686;27;8784;-76
2021/12/28 15:17:01;;;;;;;;;2.25;2.25;;;;;;;;5142453;27;14760;-75
2021/12/28 15:19:28;;;;;;;;;1.00;1.00;;;;;;;;5161374;27;11648;-75
2021/12/28 15:21:54;;;;;;;;;1.00;1.00;;;;;;;;5142802;27;12295;-76
2021/12/28 15:24:19;;;;;;;;;1.00;1.00;;;;;;;;5161582;27;11637;-76
2021/12/28 15:26:45;;;;;;;;;1.00;1.00;;;;;;;;5161675;27;8784;-75
2021/12/28 15:29:10;;;;;;;;;3.00;2.00;;;;;;;;5161439;27;8776;-75
2021/12/28 15:31:36;;;;;;;;;1.00;1.00;;;;;;;;5160872;27;8835;-75
2021/12/28 15:34:01;;;;;;;;;1.00;1.00;;;;;;;;5162297;27;8812;-74
2021/12/28 15:36:26;;;;;;;;;1.75;1.75;;;;;;;;5166045;27;8788;-76
2021/12/28 15:38:52;;;;;;;;;2.25;1.00;;;;;;;;5165440;27;8772;-74
2021/12/28 15:41:17;;;;;;;;;3.00;1.25;;;;;;;;5165284;27;11426;-76
2021/12/28 15:43:42;;;;;;;;;1.75;1.75;;;;;;;;5165329;27;11248;-75
2021/12/28 15:46:10;;;;;;;;;2.75;2.75;;;;;;;;5165262;27;10472;-76
2021/12/28 15:48:37;;;;;;;;;3.00;3.00;;;;;;;;5164943;27;8776;-79
2021/12/28 15:51:02;;;;;;;;;2.50;1.50;;;;;;;;5165712;27;11943;-75
2021/12/28 15:53:27;;;;;;;;;4.00;4.00;;;;;;;;5170683;27;11415;-79
2021/12/28 15:55:53;;;;;;;;;4.50;2.50;;;;;;;;5162380;27;11811;-77
2021/12/28 15:58:18;;;;;;;;;4.75;4.00;;;;;;;;5165108;27;10478;-78
2021/12/28 16:00:43;;;;;;;;;4.00;3.00;;;;;;;;5165221;27;10940;-78
2021/12/28 16:03:09;;;;;;;;;4.00;4.00;;;;;;;;5178585;27;10007;-78
2021/12/28 16:05:34;;;;;;;;;22.25;20.25;;;;;;;;5185651;27;9465;-78
2021/12/28 16:07:59;;;;;;;;;10.25;9.00;;;;;;;;5185189;27;22608;-78
2021/12/28 16:10:25;;;;;;;;;5.75;5.00;;;;;;;;5185136;27;22844;-77
2021/12/28 16:12:50;;;;;;;;;8.00;5.75;;;;;;;;5184664;27;21504;-76
2021/12/28 16:15:15;;;;;;;;;8.00;3.50;;;;;;;;5186221;27;11328;-78